sensor_id;sensor_type;location;lat;lon;timestamp;pressure;altitude;pressure_sealevel;temperature;humidity
56514;BME280;62152;52.078;8.414;2024-02-21T00:02:18;100659.44;;;18.05;58.87
56514;BME280;62152;52.078;8.414;2024-02-21T00:06:18;100658.59;;;18.04;58.68
56514;BME280;62152;52.078;8.414;2024-02-21T00:10:19;100665.72;;;18.06;58.85
56514;BME280;62152;52.078;8.414;2024-02-21T00:14:22;100662.88;;;18.02;58.79
56514;BME280;62152;52.078;8.414;2024-02-21T00:18:23;100650.75;;;18.03;58.83
56514;BME280;62152;52.078;8.414;2024-02-21T00:22:24;100654.63;;;18.02;58.89
56514;BME280;62152;52.078;8.414;2024-02-21T00:26:25;100632.69;;;18.02;58.78
56514;BME280;62152;52.078;8.414;2024-02-21T00:30:28;100628.34;;;18.01;58.71
56514;BME280;62152;52.078;8.414;2024-02-21T00:34:29;100628.41;;;18.04;58.79
56514;BME280;62152;52.078;8.414;2024-02-21T00:38:30;100621.00;;;18.05;58.61
56514;BME280;62152;52.078;8.414;2024-02-21T00:42:30;100602.91;;;18.04;58.51
56514;BME280;62152;52.078;8.414;2024-02-21T00:46:34;100603.66;;;18.01;58.60
56514;BME280;62152;52.078;8.414;2024-02-21T00:50:34;100597.78;;;18.02;58.67
56514;BME280;62152;52.078;8.414;2024-02-21T00:54:35;100595.84;;;18.03;58.56
56514;BME280;62152;52.078;8.414;2024-02-21T00:58:36;100584.06;;;18.02;58.86
56514;BME280;62152;52.078;8.414;2024-02-21T01:02:39;100584.06;;;18.02;58.58
56514;BME280;62152;52.078;8.414;2024-02-21T01:06:40;100590.34;;;18.03;58.75
56514;BME280;62152;52.078;8.414;2024-02-21T01:10:41;100580.53;;;18.02;58.74
56514;BME280;62152;52.078;8.414;2024-02-21T01:14:42;100584.88;;;18.03;58.78
56514;BME280;62152;52.078;8.414;2024-02-21T01:18:45;100594.25;;;18.02;58.52
56514;BME280;62152;52.078;8.414;2024-02-21T01:22:47;100587.19;;;18.01;58.54
56514;BME280;62152;52.078;8.414;2024-02-21T01:26:47;100586.75;;;17.99;58.69
56514;BME280;62152;52.078;8.414;2024-02-21T01:30:48;100588.34;;;18.00;58.62
56514;BME280;62152;52.078;8.414;2024-02-21T01:34:51;100582.75;;;17.96;58.86
56514;BME280;62152;52.078;8.414;2024-02-21T01:38:52;100582.38;;;17.98;58.66
56514;BME280;62152;52.078;8.414;2024-02-21T01:42:55;100569.81;;;17.97;58.80
56514;BME280;62152;52.078;8.414;2024-02-21T01:46:56;100562.03;;;17.99;58.66
56514;BME280;62152;52.078;8.414;2024-02-21T01:51:00;100563.63;;;18.00;58.59
56514;BME280;62152;52.078;8.414;2024-02-21T01:55:02;100556.19;;;18.00;58.61
56514;BME280;62152;52.078;8.414;2024-02-21T01:59:03;100559.31;;;17.99;58.78
56514;BME280;62152;52.078;8.414;2024-02-21T02:03:04;100548.66;;;17.97;58.71
56514;BME280;62152;52.078;8.414;2024-02-21T02:07:08;100550.69;;;18.00;58.64
56514;BME280;62152;52.078;8.414;2024-02-21T02:11:09;100529.91;;;17.99;58.55
56514;BME280;62152;52.078;8.414;2024-02-21T02:15:10;100532.28;;;18.01;58.61
56514;BME280;62152;52.078;8.414;2024-02-21T02:19:11;100529.91;;;17.99;58.51
56514;BME280;62152;52.078;8.414;2024-02-21T02:23:21;100524.41;;;17.99;58.70
56514;BME280;62152;52.078;8.414;2024-02-21T02:27:22;100526.38;;;17.99;58.57
56514;BME280;62152;52.078;8.414;2024-02-21T02:31:22;100522.47;;;18.00;58.41
56514;BME280;62152;52.078;8.414;2024-02-21T02:35:23;100522.00;;;17.98;58.70
56514;BME280;62152;52.078;8.414;2024-02-21T02:39:27;100511.03;;;17.98;58.56
56514;BME280;62152;52.078;8.414;2024-02-21T02:43:27;100503.25;;;18.00;58.66
56514;BME280;62152;52.078;8.414;2024-02-21T02:47:28;100483.69;;;18.01;58.46
56514;BME280;62152;52.078;8.414;2024-02-21T02:51:29;100476.50;;;17.97;58.64
56514;BME280;62152;52.078;8.414;2024-02-21T02:55:32;100458.09;;;17.97;58.64
56514;BME280;62152;52.078;8.414;2024-02-21T02:59:33;100446.78;;;17.99;58.65
56514;BME280;62152;52.078;8.414;2024-02-21T03:03:34;100427.56;;;17.99;58.65
56514;BME280;62152;52.078;8.414;2024-02-21T03:07:34;100420.13;;;17.99;58.58
56514;BME280;62152;52.078;8.414;2024-02-21T03:11:38;100428.69;;;17.98;58.51
56514;BME280;62152;52.078;8.414;2024-02-21T03:15:39;100407.19;;;18.00;58.49
56514;BME280;62152;52.078;8.414;2024-02-21T03:19:40;100414.63;;;17.99;58.60
56514;BME280;62152;52.078;8.414;2024-02-21T03:23:40;100419.34;;;17.99;58.50
56514;BME280;62152;52.078;8.414;2024-02-21T03:27:44;100408.34;;;17.99;58.49
56514;BME280;62152;52.078;8.414;2024-02-21T03:31:44;100419.66;;;17.97;58.71
56514;BME280;62152;52.078;8.414;2024-02-21T03:35:45;100419.75;;;18.01;58.59
56514;BME280;62152;52.078;8.414;2024-02-21T03:39:46;100431.53;;;18.01;58.48
56514;BME280;62152;52.078;8.414;2024-02-21T03:43:49;100438.97;;;18.01;58.57
56514;BME280;62152;52.078;8.414;2024-02-21T03:47:50;100445.97;;;17.98;58.42
56514;BME280;62152;52.078;8.414;2024-02-21T03:51:51;100451.38;;;17.95;58.59
56514;BME280;62152;52.078;8.414;2024-02-21T03:55:52;100453.84;;;18.00;58.67
56514;BME280;62152;52.078;8.414;2024-02-21T03:59:55;100459.69;;;17.98;58.64
56514;BME280;62152;52.078;8.414;2024-02-21T04:03:56;100458.44;;;17.96;58.50
56514;BME280;62152;52.078;8.414;2024-02-21T04:07:56;100456.97;;;17.98;58.61
56514;BME280;62152;52.078;8.414;2024-02-21T04:11:57;100446.31;;;17.97;58.55
56514;BME280;62152;52.078;8.414;2024-02-21T04:16:00;100448.28;;;17.96;58.71
56514;BME280;62152;52.078;8.414;2024-02-21T04:20:03;100439.66;;;17.98;58.48
56514;BME280;62152;52.078;8.414;2024-02-21T04:24:05;100449.84;;;17.97;58.45
56514;BME280;62152;52.078;8.414;2024-02-21T04:28:06;100448.63;;;17.95;58.54
56514;BME280;62152;52.078;8.414;2024-02-21T04:32:09;100455.81;;;17.99;58.43
56514;BME280;62152;52.078;8.414;2024-02-21T04:36:10;100438.53;;;17.99;58.63
56514;BME280;62152;52.078;8.414;2024-02-21T04:40:11;100459.25;;;17.96;58.53
56514;BME280;62152;52.078;8.414;2024-02-21T04:44:12;100456.50;;;17.96;58.49
56514;BME280;62152;52.078;8.414;2024-02-21T04:48:16;100444.03;;;17.99;58.67
56514;BME280;62152;52.078;8.414;2024-02-21T04:52:17;100454.56;;;17.97;58.64
56514;BME280;62152;52.078;8.414;2024-02-21T04:56:17;100456.13;;;17.98;59.38
56514;BME280;62152;52.078;8.414;2024-02-21T05:00:19;100455.03;;;17.83;59.65
56514;BME280;62152;52.078;8.414;2024-02-21T05:04:22;100448.97;;;17.58;58.49
56514;BME280;62152;52.078;8.414;2024-02-21T05:08:23;100435.44;;;17.18;56.30
56514;BME280;62152;52.078;8.414;2024-02-21T05:12:24;100452.56;;;17.62;54.81
56514;BME280;62152;52.078;8.414;2024-02-21T05:16:25;100441.69;;;17.82;55.36
56514;BME280;62152;52.078;8.414;2024-02-21T05:20:28;100424.50;;;17.85;55.13
56514;BME280;62152;52.078;8.414;2024-02-21T05:24:29;100415.34;;;17.96;54.61
56514;BME280;62152;52.078;8.414;2024-02-21T05:28:30;100400.41;;;17.94;55.00
56514;BME280;62152;52.078;8.414;2024-02-21T05:32:30;100403.84;;;17.91;55.37
56514;BME280;62152;52.078;8.414;2024-02-21T05:36:34;100412.06;;;17.91;55.55
56514;BME280;62152;52.078;8.414;2024-02-21T05:40:35;100399.09;;;17.88;55.78
56514;BME280;62152;52.078;8.414;2024-02-21T05:44:35;100395.97;;;17.89;55.91
56514;BME280;62152;52.078;8.414;2024-02-21T05:48:36;100385.38;;;17.88;55.93
56514;BME280;62152;52.078;8.414;2024-02-21T05:52:39;100383.00;;;17.86;56.21
56514;BME280;62152;52.078;8.414;2024-02-21T05:56:44;100385.38;;;17.88;56.28
56514;BME280;62152;52.078;8.414;2024-02-21T06:00:45;100373.97;;;17.86;56.17
56514;BME280;62152;52.078;8.414;2024-02-21T06:04:45;100372.00;;;17.86;56.49
56514;BME280;62152;52.078;8.414;2024-02-21T06:08:49;100375.91;;;17.85;56.37
56514;BME280;62152;52.078;8.414;2024-02-21T06:12:49;100380.63;;;17.85;56.48
56514;BME280;62152;52.078;8.414;2024-02-21T06:16:50;100379.47;;;17.86;56.66
56514;BME280;62152;52.078;8.414;2024-02-21T06:20:51;100375.91;;;17.85;56.68
56514;BME280;62152;52.078;8.414;2024-02-21T06:24:55;100381.75;;;17.84;56.71
56514;BME280;62152;52.078;8.414;2024-02-21T06:28:55;100382.09;;;17.82;56.84
56514;BME280;62152;52.078;8.414;2024-02-21T06:32:56;100375.47;;;17.83;56.90
56514;BME280;62152;52.078;8.414;2024-02-21T06:36:57;100359.78;;;17.84;57.07
56514;BME280;62152;52.078;8.414;2024-02-21T06:41:00;100354.31;;;17.84;56.95
56514;BME280;62152;52.078;8.414;2024-02-21T06:45:01;100349.97;;;17.83;57.23
56514;BME280;62152;52.078;8.414;2024-02-21T06:49:02;100336.25;;;17.83;57.19
56514;BME280;62152;52.078;8.414;2024-02-21T06:53:03;100326.06;;;17.83;57.00
56514;BME280;62152;52.078;8.414;2024-02-21T06:57:07;100320.25;;;17.85;57.22
56514;BME280;62152;52.078;8.414;2024-02-21T07:01:08;100318.63;;;17.84;57.22
56514;BME280;62152;52.078;8.414;2024-02-21T07:05:09;100313.16;;;17.84;57.10
56514;BME280;62152;52.078;8.414;2024-02-21T07:09:10;100309.97;;;17.82;57.31
56514;BME280;62152;52.078;8.414;2024-02-21T07:13:13;100309.97;;;17.82;57.27
56514;BME280;62152;52.078;8.414;2024-02-21T07:17:14;100321.38;;;17.84;57.21
56514;BME280;62152;52.078;8.414;2024-02-21T07:21:14;100321.03;;;17.85;57.17
56514;BME280;62152;52.078;8.414;2024-02-21T07:25:15;100335.88;;;17.84;57.46
56514;BME280;62152;52.078;8.414;2024-02-21T07:29:19;100327.31;;;17.86;57.41
56514;BME280;62152;52.078;8.414;2024-02-21T07:33:19;100350.34;;;17.81;57.47
56514;BME280;62152;52.078;8.414;2024-02-21T07:37:20;100340.59;;;17.84;57.48
56514;BME280;62152;52.078;8.414;2024-02-21T07:41:21;100340.59;;;17.84;57.47
56514;BME280;62152;52.078;8.414;2024-02-21T07:45:24;100334.41;;;17.87;57.51
56514;BME280;62152;52.078;8.414;2024-02-21T07:49:25;100345.38;;;17.87;57.22
56514;BME280;62152;52.078;8.414;2024-02-21T07:53:26;100331.66;;;17.87;57.31
56514;BME280;62152;52.078;8.414;2024-02-21T07:57:27;100330.06;;;17.86;57.30
56514;BME280;62152;52.078;8.414;2024-02-21T08:01:30;100330.50;;;17.88;57.42
56514;BME280;62152;52.078;8.414;2024-02-21T08:05:34;100328.97;;;17.90;57.24
56514;BME280;62152;52.078;8.414;2024-02-21T08:09:35;100323.34;;;17.83;57.34
56514;BME280;62152;52.078;8.414;2024-02-21T08:13:36;100318.78;;;17.91;57.39
56514;BME280;62152;52.078;8.414;2024-02-21T08:17:39;100315.56;;;17.85;57.58
56514;BME280;62152;52.078;8.414;2024-02-21T08:21:40;100306.16;;;17.86;57.53
56514;BME280;62152;52.078;8.414;2024-02-21T08:25:41;100299.50;;;17.87;57.35
56514;BME280;62152;52.078;8.414;2024-02-21T08:29:41;100288.19;;;17.89;57.40
56514;BME280;62152;52.078;8.414;2024-02-21T08:33:45;100288.59;;;17.91;57.40
56514;BME280;62152;52.078;8.414;2024-02-21T08:37:46;100280.38;;;17.91;57.49
56514;BME280;62152;52.078;8.414;2024-02-21T08:41:46;100271.00;;;17.92;57.25
56514;BME280;62152;52.078;8.414;2024-02-21T08:45:47;100271.78;;;17.92;57.37
56514;BME280;62152;52.078;8.414;2024-02-21T08:49:50;100260.44;;;17.94;57.32
56514;BME280;62152;52.078;8.414;2024-02-21T08:53:51;100260.06;;;17.95;57.38
56514;BME280;62152;52.078;8.414;2024-02-21T08:57:52;100259.38;;;17.98;57.28
56514;BME280;62152;52.078;8.414;2024-02-21T09:01:53;100258.13;;;17.96;57.40
56514;BME280;62152;52.078;8.414;2024-02-21T09:05:56;100249.19;;;17.99;57.20
56514;BME280;62152;52.078;8.414;2024-02-21T09:09:57;100246.78;;;17.97;57.12
56514;BME280;62152;52.078;8.414;2024-02-21T09:13:57;100256.25;;;18.00;57.10
56514;BME280;62152;52.078;8.414;2024-02-21T09:17:58;100260.56;;;18.01;57.07
56514;BME280;62152;52.078;8.414;2024-02-21T09:22:02;100245.28;;;18.00;57.02
56514;BME280;62152;52.078;8.414;2024-02-21T09:26:03;100248.38;;;17.98;57.28
56514;BME280;62152;52.078;8.414;2024-02-21T09:30:05;100246.84;;;18.01;57.29
56514;BME280;62152;52.078;8.414;2024-02-21T09:34:06;100246.91;;;18.04;57.02
56514;BME280;62152;52.078;8.414;2024-02-21T09:38:09;100237.53;;;18.06;56.97
56514;BME280;62152;52.078;8.414;2024-02-21T09:42:11;100226.19;;;18.07;57.20
56514;BME280;62152;52.078;8.414;2024-02-21T09:46:17;100212.47;;;18.07;57.16
56514;BME280;62152;52.078;8.414;2024-02-21T09:50:19;100212.09;;;18.09;57.09
56514;BME280;62152;52.078;8.414;2024-02-21T09:54:24;100196.41;;;18.09;56.93
56514;BME280;62152;52.078;8.414;2024-02-21T09:58:26;100192.09;;;18.08;56.92
56514;BME280;62152;52.078;8.414;2024-02-21T10:02:27;100200.75;;;18.10;56.95
56514;BME280;62152;52.078;8.414;2024-02-21T10:06:28;100198.44;;;18.12;56.97
56514;BME280;62152;52.078;8.414;2024-02-21T10:10:40;100196.84;;;18.11;57.01
56514;BME280;62152;52.078;8.414;2024-02-21T10:14:41;100198.44;;;18.12;56.82
56514;BME280;62152;52.078;8.414;2024-02-21T10:18:42;100188.25;;;18.13;56.98
56514;BME280;62152;52.078;8.414;2024-02-21T10:22:42;100180.81;;;18.13;56.77
56514;BME280;62152;52.078;8.414;2024-02-21T10:26:46;100192.59;;;18.14;56.90
56514;BME280;62152;52.078;8.414;2024-02-21T10:30:50;100176.50;;;18.12;56.84
56514;BME280;62152;52.078;8.414;2024-02-21T10:35:01;100176.91;;;18.14;56.72
56514;BME280;62152;52.078;8.414;2024-02-21T10:39:02;100172.63;;;18.17;56.88
56514;BME280;62152;52.078;8.414;2024-02-21T10:43:12;100162.44;;;18.17;56.91
56514;BME280;62152;52.078;8.414;2024-02-21T10:47:17;100153.78;;;18.15;56.68
56514;BME280;62152;52.078;8.414;2024-02-21T10:51:19;100154.19;;;18.17;56.85
56514;BME280;62152;52.078;8.414;2024-02-21T10:55:26;100145.97;;;18.17;56.89
56514;BME280;62152;52.078;8.414;2024-02-21T10:59:32;100121.72;;;18.19;56.67
56514;BME280;62152;52.078;8.414;2024-02-21T11:03:32;100116.94;;;18.16;56.87
56514;BME280;62152;52.078;8.414;2024-02-21T11:07:36;100107.53;;;18.17;56.86
56514;BME280;62152;52.078;8.414;2024-02-21T11:11:39;100107.19;;;18.19;56.85
56514;BME280;62152;52.078;8.414;2024-02-21T11:15:43;100102.84;;;18.18;56.94
56514;BME280;62152;52.078;8.414;2024-02-21T11:19:44;100099.31;;;18.17;56.71
56514;BME280;62152;52.078;8.414;2024-02-21T11:23:55;100084.06;;;18.20;56.85
56514;BME280;62152;52.078;8.414;2024-02-21T11:28:00;100079.38;;;18.20;56.76
56514;BME280;62152;52.078;8.414;2024-02-21T11:32:04;100062.50;;;18.22;56.75
56514;BME280;62152;52.078;8.414;2024-02-21T11:36:05;100053.50;;;18.21;56.60
56514;BME280;62152;52.078;8.414;2024-02-21T11:40:07;100046.84;;;18.22;56.69
56514;BME280;62152;52.078;8.414;2024-02-21T11:44:08;100051.53;;;18.22;56.74
56514;BME280;62152;52.078;8.414;2024-02-21T11:48:11;100032.31;;;18.22;56.66
56514;BME280;62152;52.078;8.414;2024-02-21T11:52:13;100020.56;;;18.21;56.65
56514;BME280;62152;52.078;8.414;2024-02-21T11:56:14;100015.00;;;18.18;56.75
56514;BME280;62152;52.078;8.414;2024-02-21T12:00:16;100019.69;;;18.17;56.71
56514;BME280;62152;52.078;8.414;2024-02-21T12:04:20;100015.00;;;18.18;56.75
56514;BME280;62152;52.078;8.414;2024-02-21T12:08:21;100010.66;;;18.17;56.93
56514;BME280;62152;52.078;8.414;2024-02-21T12:12:22;100013.84;;;18.19;56.84
56514;BME280;62152;52.078;8.414;2024-02-21T12:16:23;100001.66;;;18.16;57.05
56514;BME280;62152;52.078;8.414;2024-02-21T12:20:26;100007.50;;;18.15;56.81
56514;BME280;62152;52.078;8.414;2024-02-21T12:24:28;99990.66;;;18.16;56.97
56514;BME280;62152;52.078;8.414;2024-02-21T12:28:29;99981.22;;;18.14;56.97
56514;BME280;62152;52.078;8.414;2024-02-21T12:32:30;99961.22;;;18.13;57.04
56514;BME280;62152;52.078;8.414;2024-02-21T12:36:36;99963.22;;;18.16;56.80
56514;BME280;62152;52.078;8.414;2024-02-21T12:40:37;99953.41;;;18.15;56.87
56514;BME280;62152;52.078;8.414;2024-02-21T12:44:37;99928.31;;;18.17;56.94
56514;BME280;62152;52.078;8.414;2024-02-21T12:48:38;99924.78;;;18.16;56.69
56514;BME280;62152;52.078;8.414;2024-02-21T12:52:42;99914.59;;;18.17;56.79
56514;BME280;62152;52.078;8.414;2024-02-21T12:56:42;99912.66;;;18.17;56.92
56514;BME280;62152;52.078;8.414;2024-02-21T13:00:43;99914.22;;;18.18;56.86
56514;BME280;62152;52.078;8.414;2024-02-21T13:04:44;99900.50;;;18.18;56.79
56514;BME280;62152;52.078;8.414;2024-02-21T13:08:47;99878.91;;;18.17;56.93
56514;BME280;62152;52.078;8.414;2024-02-21T13:12:48;99860.50;;;18.17;56.85
56514;BME280;62152;52.078;8.414;2024-02-21T13:16:49;99811.09;;;18.17;56.77
56514;BME280;62152;52.078;8.414;2024-02-21T13:20:50;99804.81;;;18.17;56.73
56514;BME280;62152;52.078;8.414;2024-02-21T13:24:53;99787.16;;;18.18;56.87
56514;BME280;62152;52.078;8.414;2024-02-21T13:28:55;99777.75;;;18.15;56.98
56514;BME280;62152;52.078;8.414;2024-02-21T13:32:56;99793.03;;;18.16;56.85
56514;BME280;62152;52.078;8.414;2024-02-21T13:36:56;99784.44;;;18.18;56.97
56514;BME280;62152;52.078;8.414;2024-02-21T13:41:00;99764.81;;;18.16;56.88
56514;BME280;62152;52.078;8.414;2024-02-21T13:45:01;99731.88;;;18.16;56.65
56514;BME280;62152;52.078;8.414;2024-02-21T13:49:03;99725.19;;;18.13;56.88
56514;BME280;62152;52.078;8.414;2024-02-21T13:53:05;99704.81;;;18.14;56.81
56514;BME280;62152;52.078;8.414;2024-02-21T13:57:08;99686.78;;;18.13;56.74
56514;BME280;62152;52.078;8.414;2024-02-21T14:01:09;99698.16;;;18.15;57.08
56514;BME280;62152;52.078;8.414;2024-02-21T14:05:10;99722.84;;;18.15;56.94
56514;BME280;62152;52.078;8.414;2024-02-21T14:09:11;99711.88;;;18.15;56.75
56514;BME280;62152;52.078;8.414;2024-02-21T14:13:14;99705.97;;;18.13;56.85
56514;BME280;62152;52.078;8.414;2024-02-21T14:17:15;99682.84;;;18.14;56.82
56514;BME280;62152;52.078;8.414;2024-02-21T14:21:16;99679.72;;;18.12;56.99
56514;BME280;62152;52.078;8.414;2024-02-21T14:25:17;99656.56;;;18.13;56.85
56514;BME280;62152;52.078;8.414;2024-02-21T14:29:20;99647.16;;;18.14;56.96
56514;BME280;62152;52.078;8.414;2024-02-21T14:33:21;99649.53;;;18.16;56.94
56514;BME280;62152;52.078;8.414;2024-02-21T14:37:22;99655.41;;;18.18;56.76
56514;BME280;62152;52.078;8.414;2024-02-21T14:41:22;99628.75;;;18.15;56.74
56514;BME280;62152;52.078;8.414;2024-02-21T14:45:26;99611.09;;;18.12;56.82
56514;BME280;62152;52.078;8.414;2024-02-21T14:49:27;99600.91;;;18.13;56.97
56514;BME280;62152;52.078;8.414;2024-02-21T14:53:27;99589.53;;;18.14;56.89
56514;BME280;62152;52.078;8.414;2024-02-21T14:57:28;99569.53;;;18.14;56.93
56514;BME280;62152;52.078;8.414;2024-02-21T15:01:35;99553.03;;;18.10;56.95
56514;BME280;62152;52.078;8.414;2024-02-21T15:05:36;99554.59;;;18.11;57.00
56514;BME280;62152;52.078;8.414;2024-02-21T15:09:37;99542.06;;;18.10;56.90
56514;BME280;62152;52.078;8.414;2024-02-21T15:13:38;99503.63;;;18.10;56.87
56514;BME280;62152;52.078;8.414;2024-02-21T15:17:41;99504.03;;;18.09;56.96
56514;BME280;62152;52.078;8.414;2024-02-21T15:21:42;99505.97;;;18.08;57.19
56514;BME280;62152;52.078;8.414;2024-02-21T15:25:45;99488.72;;;18.08;57.18
56514;BME280;62152;52.078;8.414;2024-02-21T15:29:46;99485.59;;;18.06;57.17
56514;BME280;62152;52.078;8.414;2024-02-21T15:33:50;99480.09;;;18.06;56.99
56514;BME280;62152;52.078;8.414;2024-02-21T15:37:51;99470.63;;;17.96;56.59
56514;BME280;62152;52.078;8.414;2024-02-21T15:41:52;99464.13;;;17.67;56.49
56514;BME280;62152;52.078;8.414;2024-02-21T15:45:53;99449.84;;;17.43;55.70
56514;BME280;62152;52.078;8.414;2024-02-21T15:49:57;99447.41;;;17.35;53.97
56514;BME280;62152;52.078;8.414;2024-02-21T15:53:58;99445.69;;;17.16;52.55
56514;BME280;62152;52.078;8.414;2024-02-21T15:57:59;99425.09;;;17.33;53.17
56514;BME280;62152;52.078;8.414;2024-02-21T16:02:00;99423.84;;;17.27;53.50
56514;BME280;62152;52.078;8.414;2024-02-21T16:06:04;99417.19;;;17.24;52.85
56514;BME280;62152;52.078;8.414;2024-02-21T16:10:06;99412.09;;;17.22;53.20
56514;BME280;62152;52.078;8.414;2024-02-21T16:14:07;99412.09;;;17.26;52.59
56514;BME280;62152;52.078;8.414;2024-02-21T16:18:08;99410.38;;;17.07;52.94
56514;BME280;62152;52.078;8.414;2024-02-21T16:22:11;99411.53;;;17.50;53.91
56514;BME280;62152;52.078;8.414;2024-02-21T16:26:12;99405.06;;;17.76;54.10
56514;BME280;62152;52.078;8.414;2024-02-21T16:30:13;99403.09;;;17.77;53.93
56514;BME280;62152;52.078;8.414;2024-02-21T16:34:14;99398.03;;;17.83;54.08
56514;BME280;62152;52.078;8.414;2024-02-21T16:38:19;99379.63;;;17.80;54.38
56514;BME280;62152;52.078;8.414;2024-02-21T16:42:19;99390.59;;;17.83;54.43
56514;BME280;62152;52.078;8.414;2024-02-21T16:46:20;99377.31;;;17.89;54.67
56514;BME280;62152;52.078;8.414;2024-02-21T16:50:21;99375.72;;;17.88;54.70
56514;BME280;62152;52.078;8.414;2024-02-21T16:54:24;99364.72;;;17.84;54.70
56514;BME280;62152;52.078;8.414;2024-02-21T16:58:25;99366.28;;;17.82;54.80
56514;BME280;62152;52.078;8.414;2024-02-21T17:02:26;99368.66;;;17.80;54.94
56514;BME280;62152;52.078;8.414;2024-02-21T17:06:27;99360.41;;;17.80;54.88
56514;BME280;62152;52.078;8.414;2024-02-21T17:10:30;99353.72;;;17.77;55.19
56514;BME280;62152;52.078;8.414;2024-02-21T17:14:31;99352.97;;;17.80;55.33
56514;BME280;62152;52.078;8.414;2024-02-21T17:18:32;99336.13;;;17.82;55.00
56514;BME280;62152;52.078;8.414;2024-02-21T17:22:33;99335.34;;;17.77;55.09
56514;BME280;62152;52.078;8.414;2024-02-21T17:26:36;99332.97;;;17.80;55.22
56514;BME280;62152;52.078;8.414;2024-02-21T17:30:37;99330.25;;;17.80;55.24
56514;BME280;62152;52.078;8.414;2024-02-21T17:34:38;99314.19;;;17.82;55.24
56514;BME280;62152;52.078;8.414;2024-02-21T17:38:38;99303.59;;;17.80;55.14
56514;BME280;62152;52.078;8.414;2024-02-21T17:42:42;99308.69;;;17.82;55.28
56514;BME280;62152;52.078;8.414;2024-02-21T17:46:42;99297.34;;;17.83;55.25
56514;BME280;62152;52.078;8.414;2024-02-21T17:50:43;99282.03;;;17.82;55.14
56514;BME280;62152;52.078;8.414;2024-02-21T17:54:44;99269.13;;;17.83;55.25
56514;BME280;62152;52.078;8.414;2024-02-21T17:58:47;99265.63;;;17.93;54.80
56514;BME280;62152;52.078;8.414;2024-02-21T18:02:48;99265.63;;;17.86;55.22
56514;BME280;62152;52.078;8.414;2024-02-21T18:06:49;99254.22;;;17.84;55.24
56514;BME280;62152;52.078;8.414;2024-02-21T18:10:50;99238.56;;;17.81;55.29
56514;BME280;62152;52.078;8.414;2024-02-21T18:14:53;99235.03;;;17.84;55.04
56514;BME280;62152;52.078;8.414;2024-02-21T18:18:54;99222.09;;;17.84;55.28
56514;BME280;62152;52.078;8.414;2024-02-21T18:22:55;99204.84;;;17.84;55.48
56514;BME280;62152;52.078;8.414;2024-02-21T18:26:56;99197.41;;;17.84;55.30
56514;BME280;62152;52.078;8.414;2024-02-21T18:30:59;99197.03;;;17.86;55.28
56514;BME280;62152;52.078;8.414;2024-02-21T18:35:00;99172.72;;;17.81;55.50
56514;BME280;62152;52.078;8.414;2024-02-21T18:39:00;99160.19;;;17.83;55.54
56514;BME280;62152;52.078;8.414;2024-02-21T18:43:01;99151.97;;;17.83;55.49
56514;BME280;62152;52.078;8.414;2024-02-21T18:47:05;99148.84;;;17.85;55.43
56514;BME280;62152;52.078;8.414;2024-02-21T18:51:05;99135.91;;;17.85;55.67
56514;BME280;62152;52.078;8.414;2024-02-21T18:55:07;99133.53;;;17.80;55.53
56514;BME280;62152;52.078;8.414;2024-02-21T18:59:08;99118.69;;;17.85;55.61
56514;BME280;62152;52.078;8.414;2024-02-21T19:03:11;99109.25;;;17.86;55.57
56514;BME280;62152;52.078;8.414;2024-02-21T19:07:12;99103.78;;;17.86;55.42
56514;BME280;62152;52.078;8.414;2024-02-21T19:11:13;99090.81;;;17.83;55.62
56514;BME280;62152;52.078;8.414;2024-02-21T19:15:14;99087.31;;;17.86;55.81
56514;BME280;62152;52.078;8.414;2024-02-21T19:19:17;99064.59;;;17.85;55.78
56514;BME280;62152;52.078;8.414;2024-02-21T19:23:18;99059.13;;;17.85;55.79
56514;BME280;62152;52.078;8.414;2024-02-21T19:27:19;99045.75;;;17.84;55.69
56514;BME280;62152;52.078;8.414;2024-02-21T19:31:20;99049.31;;;17.88;55.86
56514;BME280;62152;52.078;8.414;2024-02-21T19:35:23;99053.22;;;17.87;55.77
56514;BME280;62152;52.078;8.414;2024-02-21T19:39:24;99047.75;;;17.87;55.67
56514;BME280;62152;52.078;8.414;2024-02-21T19:43:25;99036.00;;;17.86;55.86
56514;BME280;62152;52.078;8.414;2024-02-21T19:47:25;99032.47;;;17.86;55.87
56514;BME280;62152;52.078;8.414;2024-02-21T19:51:29;99027.75;;;17.86;55.93
56514;BME280;62152;52.078;8.414;2024-02-21T19:55:30;99008.16;;;17.88;55.92
56514;BME280;62152;52.078;8.414;2024-02-21T19:59:30;99003.47;;;17.88;55.76
56514;BME280;62152;52.078;8.414;2024-02-21T20:03:31;98994.06;;;17.86;55.74
56514;BME280;62152;52.078;8.414;2024-02-21T20:07:35;98988.19;;;17.87;55.89
56514;BME280;62152;52.078;8.414;2024-02-21T20:11:36;98973.69;;;17.87;55.77
56514;BME280;62152;52.078;8.414;2024-02-21T20:15:37;98966.22;;;17.87;56.00
56514;BME280;62152;52.078;8.414;2024-02-21T20:19:37;98955.25;;;17.84;56.05
56514;BME280;62152;52.078;8.414;2024-02-21T20:23:41;98945.47;;;17.86;56.02
56514;BME280;62152;52.078;8.414;2024-02-21T20:27:42;98944.69;;;17.86;55.88
56514;BME280;62152;52.078;8.414;2024-02-21T20:31:42;98938.44;;;17.85;55.98
56514;BME280;62152;52.078;8.414;2024-02-21T20:35:43;98909.03;;;17.86;56.13
56514;BME280;62152;52.078;8.414;2024-02-21T20:39:47;98910.59;;;17.87;56.12
56514;BME280;62152;52.078;8.414;2024-02-21T20:43:47;98913.75;;;17.85;56.17
56514;BME280;62152;52.078;8.414;2024-02-21T20:47:48;98904.72;;;17.88;56.12
56514;BME280;62152;52.078;8.414;2024-02-21T20:51:49;98907.47;;;17.85;56.00
56514;BME280;62152;52.078;8.414;2024-02-21T20:55:52;98874.94;;;17.87;55.96
56514;BME280;62152;52.078;8.414;2024-02-21T20:59:53;98873.38;;;17.86;56.13
56514;BME280;62152;52.078;8.414;2024-02-21T21:03:54;98871.81;;;17.85;56.03
56514;BME280;62152;52.078;8.414;2024-02-21T21:07:55;98867.50;;;17.84;56.26
56514;BME280;62152;52.078;8.414;2024-02-21T21:11:59;98857.69;;;17.83;56.33